createdAt,value
2023-05-15T00:01:24.611Z,4.65
2023-05-15T00:03:52.298Z,5.22
2023-05-15T00:06:19.993Z,5.20
2023-05-15T00:08:48.032Z,5.53
2023-05-15T00:11:14.717Z,4.70
2023-05-15T00:13:41.373Z,5.25
2023-05-15T00:16:10.268Z,5.28
2023-05-15T00:18:37.095Z,5.75
2023-05-15T00:21:04.926Z,5.65
2023-05-15T00:23:31.555Z,4.97
2023-05-15T00:25:58.220Z,5.80
2023-05-15T00:28:25.091Z,6.45
2023-05-15T00:30:52.348Z,5.63
2023-05-15T00:33:20.126Z,5.95
2023-05-15T00:35:48.107Z,5.60
2023-05-15T00:38:14.700Z,5.57
2023-05-15T00:40:44.082Z,5.13
2023-05-15T00:43:12.296Z,5.50
2023-05-15T00:45:40.829Z,5.82
2023-05-15T00:48:09.856Z,6.13
2023-05-15T00:50:37.041Z,5.75
2023-05-15T00:53:05.299Z,5.65
2023-05-15T00:55:33.410Z,6.05
2023-05-15T00:58:01.544Z,6.10
2023-05-15T01:00:28.615Z,6.88
2023-05-15T01:02:55.433Z,6.03
2023-05-15T01:05:22.260Z,5.70
2023-05-15T01:08:27.723Z,5.85
2023-05-15T01:10:55.575Z,5.93
2023-05-15T01:13:23.175Z,6.18
2023-05-15T01:15:50.335Z,6.25
2023-05-15T01:18:17.724Z,6.72
2023-05-15T01:21:11.807Z,6.18
2023-05-15T01:24:17.748Z,6.15
2023-05-15T01:27:03.095Z,6.53
2023-05-15T01:29:51.609Z,6.10
2023-05-15T01:32:32.278Z,6.15
2023-05-15T01:35:13.420Z,5.68
2023-05-15T01:37:50.099Z,7.00
2023-05-15T01:40:19.776Z,6.38
2023-05-15T01:43:03.778Z,5.70
2023-05-15T01:45:33.496Z,6.43
2023-05-15T01:48:01.933Z,6.00
2023-05-15T01:50:33.893Z,6.05
2023-05-15T01:53:02.209Z,5.95
2023-05-15T01:55:30.245Z,6.38
2023-05-15T01:58:01.145Z,6.47
2023-05-15T02:00:29.821Z,6.05
2023-05-15T02:02:57.793Z,6.30
2023-05-15T02:05:27.122Z,6.22
2023-05-15T02:07:54.893Z,6.22
2023-05-15T02:10:22.967Z,6.07
2023-05-15T02:12:50.463Z,5.88
2023-05-15T02:15:18.882Z,6.07
2023-05-15T02:17:45.606Z,6.35
2023-05-15T02:20:13.708Z,5.70
2023-05-15T02:22:40.332Z,6.70
2023-05-15T02:25:08.444Z,5.95
2023-05-15T02:27:45.760Z,6.22
2023-05-15T02:30:16.230Z,6.10
2023-05-15T02:33:18.257Z,6.00
2023-05-15T02:36:14.188Z,6.25
2023-05-15T02:38:53.706Z,6.78
2023-05-15T02:41:23.447Z,6.43
2023-05-15T02:43:52.717Z,6.40
2023-05-15T02:46:21.645Z,6.78
2023-05-15T02:48:48.879Z,6.50
2023-05-15T02:51:15.749Z,6.93
2023-05-15T02:53:43.155Z,6.50
2023-05-15T02:56:10.129Z,6.78
2023-05-15T02:58:39.453Z,6.70
2023-05-15T03:01:06.341Z,6.78
2023-05-15T03:03:33.136Z,6.60
2023-05-15T03:06:02.836Z,7.05
2023-05-15T03:08:29.525Z,6.07
2023-05-15T03:10:56.232Z,6.78
2023-05-15T03:13:22.911Z,6.32
2023-05-15T03:15:50.921Z,6.85
2023-05-15T03:18:19.059Z,6.95
2023-05-15T03:20:48.553Z,8.48
2023-05-15T03:23:15.422Z,6.32
2023-05-15T03:25:42.018Z,6.35
2023-05-15T03:28:10.112Z,6.00
2023-05-15T03:30:36.698Z,6.22
2023-05-15T03:33:07.715Z,5.80
2023-05-15T03:35:34.381Z,5.70
2023-05-15T03:38:01.412Z,6.93
2023-05-15T03:40:28.404Z,5.47
2023-05-15T03:42:55.098Z,6.10
2023-05-15T03:45:21.737Z,6.40
2023-05-15T03:47:49.620Z,5.35
2023-05-15T03:50:16.527Z,6.60
2023-05-15T03:52:43.353Z,6.28
2023-05-15T03:55:11.311Z,6.60
2023-05-15T03:57:38.024Z,6.35
2023-05-15T04:00:11.247Z,5.97
2023-05-15T04:02:38.060Z,6.18
2023-05-15T04:05:05.523Z,6.65
2023-05-15T04:07:33.690Z,6.55
2023-05-15T04:10:04.127Z,6.25
2023-05-15T04:12:34.809Z,6.13
2023-05-15T04:15:18.834Z,5.72
2023-05-15T04:17:48.278Z,6.27
2023-05-15T04:20:16.462Z,5.70
2023-05-15T04:22:45.153Z,6.40
2023-05-15T04:25:14.638Z,5.95
2023-05-15T04:27:43.220Z,6.38
2023-05-15T04:30:11.409Z,6.60
2023-05-15T04:32:38.679Z,6.13
2023-05-15T04:35:10.199Z,6.60
2023-05-15T04:37:37.670Z,6.65
2023-05-15T04:40:07.672Z,7.00
2023-05-15T04:42:37.589Z,7.13
2023-05-15T04:45:05.913Z,6.93
2023-05-15T04:47:32.666Z,6.13
2023-05-15T04:49:59.339Z,6.30
2023-05-15T04:52:25.954Z,7.38
2023-05-15T04:54:55.351Z,6.40
2023-05-15T04:57:23.454Z,7.28
2023-05-15T04:59:50.122Z,5.65
2023-05-15T05:02:19.876Z,5.95
2023-05-15T05:04:46.520Z,5.80
2023-05-15T05:07:13.133Z,5.80
2023-05-15T05:09:40.464Z,5.60
2023-05-15T05:12:09.935Z,5.85
2023-05-15T05:14:36.915Z,6.47
2023-05-15T05:17:05.502Z,5.75
2023-05-15T05:19:32.100Z,5.38
2023-05-15T05:22:02.494Z,5.82
2023-05-15T05:24:29.723Z,5.65
2023-05-15T05:26:58.271Z,6.22
2023-05-15T05:29:26.117Z,5.75
2023-05-15T05:31:53.635Z,5.53
2023-05-15T05:34:20.392Z,5.80
2023-05-15T05:36:47.226Z,6.90
2023-05-15T05:39:14.308Z,5.47
2023-05-15T05:41:40.948Z,5.30
2023-05-15T05:44:07.947Z,7.60
2023-05-15T05:46:36.082Z,6.53
2023-05-15T05:49:02.726Z,5.78
2023-05-15T05:51:29.565Z,6.03
2023-05-15T05:53:56.181Z,6.57
2023-05-15T05:56:23.665Z,5.70
2023-05-15T05:58:50.294Z,5.47
2023-05-15T06:01:17.005Z,5.60
2023-05-15T06:03:43.922Z,6.03
2023-05-15T06:06:10.858Z,5.25
2023-05-15T06:08:37.497Z,5.50
2023-05-15T06:11:04.333Z,6.22
2023-05-15T06:13:31.018Z,5.47
2023-05-15T06:15:57.742Z,5.20
2023-05-15T06:18:24.513Z,5.35
2023-05-15T06:20:51.809Z,5.85
2023-05-15T06:23:20.292Z,5.97
2023-05-15T06:25:48.487Z,5.05
2023-05-15T06:28:15.067Z,7.13
2023-05-15T06:30:41.703Z,5.32
2023-05-15T06:33:08.472Z,5.05
2023-05-15T06:35:35.704Z,4.70
2023-05-15T06:38:02.479Z,5.05
2023-05-15T06:40:29.284Z,4.65
2023-05-15T06:42:56.592Z,5.55
2023-05-15T06:45:23.452Z,5.80
2023-05-15T06:47:50.207Z,5.10
2023-05-15T06:50:16.891Z,5.40
2023-05-15T06:52:44.585Z,4.45
2023-05-15T06:55:12.557Z,5.53
2023-05-15T06:57:39.184Z,6.07
2023-05-15T07:00:07.742Z,5.53
2023-05-15T07:02:34.507Z,7.40
2023-05-15T07:05:02.598Z,4.70
2023-05-15T07:07:29.218Z,6.80
2023-05-15T07:09:55.799Z,5.32
2023-05-15T07:12:23.164Z,6.35
2023-05-15T07:14:49.764Z,5.13
2023-05-15T07:17:18.838Z,5.28
2023-05-15T07:19:45.570Z,6.35
2023-05-15T07:22:12.183Z,5.50
2023-05-15T07:24:40.694Z,5.35
2023-05-15T07:27:07.352Z,5.22
2023-05-15T07:29:33.945Z,4.57
2023-05-15T07:32:01.924Z,4.18
2023-05-15T07:34:28.628Z,5.40
2023-05-15T07:36:55.240Z,4.15
2023-05-15T07:39:21.910Z,4.75
2023-05-15T07:41:49.467Z,5.47
2023-05-15T07:44:16.597Z,4.55
2023-05-15T07:46:43.382Z,4.53
2023-05-15T07:49:10.041Z,4.72
2023-05-15T07:51:36.667Z,4.85
2023-05-15T07:54:05.634Z,5.03
2023-05-15T07:56:33.230Z,5.15
2023-05-15T07:59:00.978Z,4.53
2023-05-15T08:01:28.304Z,4.60
2023-05-15T08:03:56.678Z,4.90
2023-05-15T08:06:23.440Z,4.35
2023-05-15T08:08:50.036Z,4.45
2023-05-15T08:11:16.674Z,4.40
2023-05-15T08:13:43.345Z,4.05
2023-05-15T08:16:10.143Z,4.60
2023-05-15T08:18:37.039Z,3.88
2023-05-15T08:21:04.734Z,3.65
2023-05-15T08:23:32.574Z,4.15
2023-05-15T08:26:00.634Z,3.42
2023-05-15T08:28:28.430Z,4.50
2023-05-15T08:30:55.086Z,4.20
2023-05-15T08:33:21.749Z,3.92
2023-05-15T08:35:48.485Z,3.78
2023-05-15T08:38:15.154Z,3.35
2023-05-15T08:40:46.887Z,3.45
2023-05-15T08:43:18.030Z,3.97
2023-05-15T08:45:45.755Z,3.90
2023-05-15T08:48:19.703Z,3.13
2023-05-15T08:50:47.537Z,4.07
2023-05-15T08:53:14.675Z,3.80
2023-05-15T08:55:43.671Z,3.92
2023-05-15T08:58:10.799Z,3.33
2023-05-15T09:00:37.951Z,3.80
2023-05-15T09:03:05.077Z,3.90
2023-05-15T09:05:32.144Z,3.30
2023-05-15T09:08:03.932Z,3.30
2023-05-15T09:10:31.813Z,3.75
2023-05-15T09:13:01.747Z,3.30
2023-05-15T09:15:30.155Z,2.80
2023-05-15T09:17:56.893Z,3.25
2023-05-15T09:20:32.344Z,2.80
2023-05-15T09:23:02.456Z,3.65
2023-05-15T09:25:40.129Z,3.28
2023-05-15T09:28:08.857Z,3.75
2023-05-15T09:30:38.525Z,3.42
2023-05-15T09:33:05.219Z,3.10
2023-05-15T09:35:39.252Z,2.88
2023-05-15T09:38:12.207Z,3.55
2023-05-15T09:40:44.647Z,3.17
2023-05-15T09:43:14.330Z,3.92
2023-05-15T09:45:41.090Z,3.55
2023-05-15T09:48:08.345Z,3.17
2023-05-15T09:50:36.865Z,4.25
2023-05-15T09:53:04.084Z,3.45
2023-05-15T09:55:36.164Z,3.55
2023-05-15T09:58:16.130Z,3.22
2023-05-15T10:00:47.674Z,3.35
2023-05-15T10:03:16.842Z,3.00
2023-05-15T10:05:44.417Z,3.35
2023-05-15T10:08:12.680Z,4.25
2023-05-15T10:10:39.630Z,3.97
2023-05-15T10:13:08.478Z,3.17
2023-05-15T10:15:35.746Z,3.72
2023-05-15T10:18:04.748Z,4.25
2023-05-15T10:20:33.245Z,3.60
2023-05-15T10:23:04.064Z,3.47
2023-05-15T10:25:51.886Z,4.38
2023-05-15T10:28:19.809Z,4.13
2023-05-15T10:30:46.952Z,3.65
2023-05-15T10:33:14.795Z,3.35
2023-05-15T10:35:43.296Z,3.63
2023-05-15T10:38:12.750Z,2.85
2023-05-15T10:40:41.878Z,3.13
2023-05-15T10:43:10.285Z,2.92
2023-05-15T10:45:37.172Z,3.47
2023-05-15T10:48:07.686Z,3.10
2023-05-15T10:50:37.795Z,3.17
2023-05-15T10:53:04.547Z,3.65
2023-05-15T10:55:31.347Z,3.15
2023-05-15T10:57:59.217Z,2.65
2023-05-15T11:00:27.929Z,2.65
2023-05-15T11:02:57.265Z,3.10
2023-05-15T11:05:24.801Z,3.10
2023-05-15T11:08:18.472Z,2.70
2023-05-15T11:10:45.191Z,3.40
2023-05-15T11:13:12.211Z,2.92
2023-05-15T11:15:46.797Z,3.45
2023-05-15T11:18:14.025Z,3.33
2023-05-15T11:20:49.688Z,4.05
2023-05-15T11:23:16.313Z,3.28
2023-05-15T11:25:44.346Z,2.80
2023-05-15T11:28:21.933Z,2.92
2023-05-15T11:30:51.830Z,3.17
2023-05-15T11:33:20.914Z,2.80
2023-05-15T11:35:48.259Z,3.17
2023-05-15T11:38:27.094Z,3.03
2023-05-15T11:40:57.927Z,2.78
2023-05-15T11:43:31.770Z,3.08
2023-05-15T11:46:05.010Z,2.88
2023-05-15T11:48:34.139Z,3.30
2023-05-15T11:51:05.693Z,2.67
2023-05-15T11:53:33.459Z,3.65
2023-05-15T11:56:02.157Z,2.92
2023-05-15T11:58:29.987Z,2.92
2023-05-15T12:00:58.028Z,3.30
2023-05-15T12:03:27.317Z,3.72
2023-05-15T12:05:59.556Z,3.10
2023-05-15T12:08:31.936Z,2.85
2023-05-15T12:10:59.256Z,2.85
2023-05-15T12:13:25.899Z,3.17
2023-05-15T12:15:55.555Z,3.22
2023-05-15T12:18:22.721Z,3.50
2023-05-15T12:20:52.717Z,3.00
2023-05-15T12:23:21.988Z,2.80
2023-05-15T12:25:52.813Z,3.08
2023-05-15T12:28:21.052Z,3.60
2023-05-15T12:30:48.046Z,4.03
2023-05-15T12:33:15.039Z,4.07
2023-05-15T12:35:45.277Z,4.10
2023-05-15T12:38:16.481Z,5.78
2023-05-15T12:40:53.567Z,3.95
2023-05-15T12:43:24.869Z,5.15
2023-05-15T12:45:53.020Z,5.22
2023-05-15T12:48:21.248Z,4.55
2023-05-15T12:50:55.661Z,4.38
2023-05-15T12:53:23.550Z,3.83
2023-05-15T12:55:52.527Z,3.17
2023-05-15T12:58:21.321Z,4.07
2023-05-15T13:00:48.847Z,3.58
2023-05-15T13:03:16.000Z,3.03
2023-05-15T13:05:44.360Z,2.78
2023-05-15T13:08:15.697Z,3.15
2023-05-15T13:10:42.387Z,2.90
2023-05-15T13:13:10.465Z,3.10
2023-05-15T13:15:44.782Z,3.08
2023-05-15T13:20:42.950Z,2.88
2023-05-15T13:23:11.319Z,3.17
2023-05-15T13:25:38.036Z,3.92
2023-05-15T13:28:08.372Z,2.70
2023-05-15T13:30:36.718Z,3.28
2023-05-15T13:33:03.943Z,3.42
2023-05-15T13:35:31.020Z,2.83
2023-05-15T13:37:59.003Z,2.90
2023-05-15T13:40:27.332Z,3.83
2023-05-15T13:42:54.114Z,3.42
2023-05-15T13:45:20.842Z,3.80
2023-05-15T13:47:47.548Z,3.55
2023-05-15T13:50:15.870Z,3.67
2023-05-15T13:52:44.628Z,3.33
2023-05-15T13:55:11.520Z,2.90
2023-05-15T13:57:39.621Z,3.17
2023-05-15T14:00:07.857Z,3.45
2023-05-15T14:02:34.638Z,3.17
2023-05-15T14:05:02.712Z,2.58
2023-05-15T14:07:29.338Z,2.67
2023-05-15T14:09:56.053Z,2.63
2023-05-15T14:12:22.728Z,2.78
2023-05-15T14:14:50.205Z,2.85
2023-05-15T14:17:17.042Z,2.90
2023-05-15T14:19:44.151Z,2.60
2023-05-15T14:22:11.188Z,2.60
2023-05-15T14:24:37.823Z,2.75
2023-05-15T14:27:06.117Z,2.83
2023-05-15T14:29:32.763Z,2.78
2023-05-15T14:32:00.726Z,2.67
2023-05-15T14:34:27.476Z,2.65
2023-05-15T14:36:55.428Z,2.65
2023-05-15T14:39:22.110Z,2.70
2023-05-15T14:41:50.726Z,3.50
2023-05-15T14:44:17.668Z,2.85
2023-05-15T14:46:44.504Z,2.63
2023-05-15T14:49:11.595Z,3.00
2023-05-15T14:51:38.219Z,2.92
2023-05-15T14:54:05.179Z,3.58
2023-05-15T14:56:32.166Z,2.20
2023-05-15T14:58:58.802Z,2.70
2023-05-15T15:01:25.770Z,3.25
2023-05-15T15:03:52.886Z,2.58
2023-05-15T15:06:20.744Z,2.90
2023-05-15T15:08:47.389Z,3.70
2023-05-15T15:11:15.382Z,2.92
2023-05-15T15:13:42.017Z,2.45
2023-05-15T15:16:09.596Z,2.42
2023-05-15T15:18:36.356Z,2.45
2023-05-15T15:21:03.740Z,2.45
2023-05-15T15:23:30.491Z,2.40
2023-05-15T15:25:57.179Z,2.42
2023-05-15T15:28:23.831Z,3.95
2023-05-15T15:30:50.488Z,2.85
2023-05-15T15:33:17.090Z,2.28
2023-05-15T15:35:43.727Z,2.45
2023-05-15T15:38:11.818Z,2.50
2023-05-15T15:40:38.447Z,3.42
2023-05-15T15:43:06.280Z,2.90
2023-05-15T15:45:32.887Z,2.97
2023-05-15T15:47:59.741Z,3.75
2023-05-15T15:50:27.182Z,2.63
2023-05-15T15:52:54.006Z,2.75
2023-05-15T15:55:20.714Z,3.20
2023-05-15T15:57:48.738Z,2.80
2023-05-15T16:00:17.133Z,2.45
2023-05-15T16:02:43.939Z,2.45
2023-05-15T16:05:10.830Z,2.78
2023-05-15T16:07:37.430Z,2.65
2023-05-15T16:10:12.581Z,2.60
2023-05-15T16:12:46.390Z,3.92
2023-05-15T16:15:23.036Z,2.78
2023-05-15T16:17:53.500Z,2.63
2023-05-15T16:20:22.240Z,2.83
2023-05-15T16:22:48.875Z,2.88
2023-05-15T16:25:16.896Z,2.60
2023-05-15T16:27:43.587Z,2.83
2023-05-15T16:30:11.623Z,3.05
2023-05-15T16:32:40.225Z,2.97
2023-05-15T16:35:07.722Z,2.55
2023-05-15T16:37:34.328Z,2.90
2023-05-15T16:40:01.055Z,3.08
2023-05-15T16:42:27.721Z,2.97
2023-05-15T16:44:55.959Z,2.67
2023-05-15T16:47:22.635Z,2.63
2023-05-15T16:49:50.517Z,3.03
2023-05-15T16:52:17.564Z,2.90
2023-05-15T16:54:44.170Z,2.78
2023-05-15T16:57:12.194Z,3.22
2023-05-15T16:59:38.942Z,3.03
2023-05-15T17:02:05.621Z,2.58
2023-05-15T17:04:35.140Z,3.05
2023-05-15T17:07:01.916Z,2.83
2023-05-15T17:09:28.588Z,2.70
2023-05-15T17:11:55.284Z,2.75
2023-05-15T17:14:24.289Z,2.88
2023-05-15T17:16:50.913Z,2.70
2023-05-15T17:19:17.782Z,2.83
2023-05-15T17:21:45.535Z,2.85
2023-05-15T17:24:12.272Z,3.63
2023-05-15T17:26:38.849Z,2.53
2023-05-15T17:29:07.177Z,3.08
2023-05-15T17:31:35.421Z,2.75
2023-05-15T17:34:03.252Z,3.40
2023-05-15T17:36:29.930Z,2.90
2023-05-15T17:38:56.560Z,3.00
2023-05-15T17:41:23.199Z,3.17
2023-05-15T17:43:49.885Z,3.25
2023-05-15T17:46:16.687Z,3.13
2023-05-15T17:48:44.808Z,3.15
2023-05-15T17:51:12.052Z,3.55
2023-05-15T17:53:38.738Z,3.10
2023-05-15T17:56:05.541Z,3.80
2023-05-15T17:58:32.209Z,2.60
2023-05-15T18:00:59.328Z,3.42
2023-05-15T18:03:26.157Z,3.60
2023-05-15T18:05:52.897Z,3.17
2023-05-15T18:08:19.546Z,2.83
2023-05-15T18:10:46.532Z,3.17
2023-05-15T18:13:14.357Z,3.38
2023-05-15T18:15:40.973Z,2.80
2023-05-15T18:18:08.696Z,2.85
2023-05-15T18:20:35.402Z,2.97
2023-05-15T18:23:02.000Z,2.90
2023-05-15T18:25:28.870Z,3.05
2023-05-15T18:27:55.649Z,3.08
2023-05-15T18:30:22.332Z,3.90
2023-05-15T18:32:50.435Z,3.15
2023-05-15T18:35:18.721Z,3.50
2023-05-15T18:37:45.360Z,4.03
2023-05-15T18:40:13.484Z,3.22
2023-05-15T18:42:40.186Z,3.40
2023-05-15T18:45:09.122Z,3.00
2023-05-15T18:47:37.188Z,3.92
2023-05-15T18:50:04.511Z,3.05
2023-05-15T18:52:31.335Z,3.13
2023-05-15T18:54:57.955Z,3.03
2023-05-15T18:57:24.681Z,3.65
2023-05-15T18:59:51.276Z,3.22
2023-05-15T19:02:17.978Z,3.35
2023-05-15T19:04:44.667Z,3.67
2023-05-15T19:07:11.315Z,4.88
2023-05-15T19:09:38.016Z,3.85
2023-05-15T19:12:05.328Z,3.20
2023-05-15T19:14:34.064Z,3.55
2023-05-15T19:17:00.772Z,3.47
2023-05-15T19:19:28.904Z,3.35
2023-05-15T19:21:55.507Z,3.10
2023-05-15T19:24:22.197Z,3.35
2023-05-15T19:26:48.925Z,3.55
2023-05-15T19:29:15.600Z,3.25
2023-05-15T19:31:43.824Z,3.15
2023-05-15T19:34:10.487Z,3.28
2023-05-15T19:36:37.161Z,2.97
2023-05-15T19:39:03.928Z,3.90
2023-05-15T19:41:30.665Z,3.50
2023-05-15T19:43:57.371Z,3.40
2023-05-15T19:46:25.464Z,3.65
2023-05-15T19:48:54.232Z,3.55
2023-05-15T19:51:20.823Z,3.42
2023-05-15T19:53:47.518Z,3.28
2023-05-15T19:56:14.295Z,3.80
2023-05-15T19:58:40.968Z,4.30
2023-05-15T20:01:07.904Z,3.60
2023-05-15T20:03:34.726Z,3.65
2023-05-15T20:06:02.578Z,3.65
2023-05-15T20:08:29.542Z,3.90
2023-05-15T20:10:56.963Z,4.03
2023-05-15T20:13:24.067Z,4.32
2023-05-15T20:15:57.025Z,3.95
2023-05-15T20:18:25.037Z,4.00
2023-05-15T20:20:54.729Z,4.78
2023-05-15T20:23:23.033Z,4.43
2023-05-15T20:25:50.934Z,4.50
2023-05-15T20:28:17.948Z,4.50
2023-05-15T20:30:47.351Z,4.95
2023-05-15T20:33:14.329Z,4.30
2023-05-15T20:35:42.750Z,4.57
2023-05-15T20:38:11.885Z,4.50
2023-05-15T20:40:39.172Z,4.13
2023-05-15T20:43:05.870Z,4.43
2023-05-15T20:45:32.647Z,5.10
2023-05-15T20:47:59.533Z,4.80
2023-05-15T20:50:27.165Z,4.95
2023-05-15T20:52:54.397Z,5.50
2023-05-15T20:55:21.723Z,4.43
2023-05-15T20:57:49.282Z,4.45
2023-05-15T21:00:17.987Z,5.30
2023-05-15T21:02:46.309Z,5.25
2023-05-15T21:05:13.023Z,5.15
2023-05-15T21:07:39.772Z,5.20
2023-05-15T21:10:08.422Z,4.80
2023-05-15T21:12:36.541Z,4.95
2023-05-15T21:15:04.375Z,4.70
2023-05-15T21:17:31.033Z,4.53
2023-05-15T21:19:58.590Z,4.60
2023-05-15T21:22:25.225Z,4.60
2023-05-15T21:24:52.040Z,4.68
2023-05-15T21:27:19.096Z,4.97
2023-05-15T21:29:47.534Z,4.82
2023-05-15T21:32:15.533Z,4.80
2023-05-15T21:34:42.171Z,5.18
2023-05-15T21:37:10.084Z,5.05
2023-05-15T21:39:36.722Z,4.68
2023-05-15T21:42:03.579Z,4.78
2023-05-15T21:44:30.329Z,4.65
2023-05-15T21:46:57.061Z,4.88
2023-05-15T21:49:23.778Z,5.40
2023-05-15T21:51:50.815Z,4.82
2023-05-15T21:54:17.717Z,4.95
2023-05-15T21:56:44.403Z,4.50
2023-05-15T21:59:14.111Z,4.80
2023-05-15T22:01:41.419Z,4.78
2023-05-15T22:04:09.650Z,4.90
2023-05-15T22:06:36.310Z,4.72
2023-05-15T22:09:03.259Z,4.85
2023-05-15T22:11:29.868Z,4.35
2023-05-15T22:13:56.537Z,4.45
2023-05-15T22:16:23.279Z,5.00
2023-05-15T22:18:50.002Z,4.53
2023-05-15T22:21:16.823Z,5.15
2023-05-15T22:23:44.746Z,4.93
2023-05-15T22:26:11.596Z,5.55
2023-05-15T22:28:38.257Z,5.10
2023-05-15T22:31:05.127Z,6.50
2023-05-15T22:33:31.855Z,5.53
2023-05-15T22:35:58.713Z,5.47
2023-05-15T22:38:26.709Z,5.25
2023-05-15T22:40:53.505Z,5.45
2023-05-15T22:43:22.620Z,5.72
2023-05-15T22:45:49.392Z,5.75
2023-05-15T22:48:16.077Z,5.88
2023-05-15T22:50:44.870Z,5.15
2023-05-15T22:53:11.635Z,5.80
2023-05-15T22:55:38.256Z,5.28
2023-05-15T22:58:04.973Z,6.25
2023-05-15T23:00:31.683Z,5.53
2023-05-15T23:02:58.488Z,4.60
2023-05-15T23:05:25.808Z,5.53
2023-05-15T23:07:52.740Z,5.38
2023-05-15T23:10:19.700Z,5.13
2023-05-15T23:12:46.366Z,5.63
2023-05-15T23:15:13.397Z,5.32
2023-05-15T23:17:40.068Z,5.35
2023-05-15T23:20:08.707Z,5.55
2023-05-15T23:22:35.305Z,5.07
2023-05-15T23:25:03.077Z,5.50
2023-05-15T23:27:29.676Z,5.63
2023-05-15T23:29:56.268Z,5.22
2023-05-15T23:32:22.904Z,6.32
2023-05-15T23:34:49.517Z,4.50
2023-05-15T23:37:17.893Z,6.13
2023-05-15T23:39:44.488Z,5.28
2023-05-15T23:42:13.579Z,5.05
2023-05-15T23:44:40.385Z,5.95
2023-05-15T23:47:08.493Z,5.10
2023-05-15T23:49:37.352Z,4.95
2023-05-15T23:52:05.374Z,4.63
2023-05-15T23:54:32.063Z,4.68
2023-05-15T23:56:58.715Z,5.50
2023-05-15T23:59:25.603Z,5.03
